sensor_id;sensor_type;location;lat;lon;timestamp;temperature;humidity
21832;DHT22;11078;49.872;6.188;2022-09-09T00:04:15;15.70;27.90
21832;DHT22;11078;49.872;6.188;2022-09-09T00:06:46;15.60;27.80
21832;DHT22;11078;49.872;6.188;2022-09-09T00:09:18;15.60;27.30
21832;DHT22;11078;49.872;6.188;2022-09-09T00:11:58;15.60;27.50
21832;DHT22;11078;49.872;6.188;2022-09-09T00:14:41;15.60;27.90
21832;DHT22;11078;49.872;6.188;2022-09-09T00:17:12;15.50;27.80
21832;DHT22;11078;49.872;6.188;2022-09-09T00:19:49;15.50;27.50
21832;DHT22;11078;49.872;6.188;2022-09-09T00:22:21;15.50;27.80
21832;DHT22;11078;49.872;6.188;2022-09-09T00:24:52;15.50;28.00
21832;DHT22;11078;49.872;6.188;2022-09-09T00:27:33;15.50;28.10
21832;DHT22;11078;49.872;6.188;2022-09-09T00:30:23;15.50;28.00
21832;DHT22;11078;49.872;6.188;2022-09-09T00:32:54;15.50;29.00
21832;DHT22;11078;49.872;6.188;2022-09-09T00:35:32;15.50;27.90
21832;DHT22;11078;49.872;6.188;2022-09-09T00:38:11;15.50;28.40
21832;DHT22;11078;49.872;6.188;2022-09-09T00:43:37;15.50;28.90
21832;DHT22;11078;49.872;6.188;2022-09-09T00:46:32;15.50;27.90
21832;DHT22;11078;49.872;6.188;2022-09-09T00:49:20;15.60;28.80
21832;DHT22;11078;49.872;6.188;2022-09-09T00:55:07;15.60;28.80
21832;DHT22;11078;49.872;6.188;2022-09-09T00:57:38;15.60;28.30
21832;DHT22;11078;49.872;6.188;2022-09-09T01:00:21;15.60;27.70
21832;DHT22;11078;49.872;6.188;2022-09-09T01:03:10;15.50;28.50
21832;DHT22;11078;49.872;6.188;2022-09-09T01:14:45;15.40;27.90
21832;DHT22;11078;49.872;6.188;2022-09-09T01:17:21;15.40;28.30
21832;DHT22;11078;49.872;6.188;2022-09-09T01:20:07;15.40;28.20
21832;DHT22;11078;49.872;6.188;2022-09-09T01:28:26;15.30;28.70
21832;DHT22;11078;49.872;6.188;2022-09-09T01:30:54;15.30;27.90
21832;DHT22;11078;49.872;6.188;2022-09-09T01:33:21;15.30;27.70
21832;DHT22;11078;49.872;6.188;2022-09-09T01:35:55;15.30;28.00
21832;DHT22;11078;49.872;6.188;2022-09-09T01:38:24;15.30;28.40
21832;DHT22;11078;49.872;6.188;2022-09-09T01:40:51;15.30;28.00
21832;DHT22;11078;49.872;6.188;2022-09-09T01:43:20;15.30;28.20
21832;DHT22;11078;49.872;6.188;2022-09-09T01:45:49;15.30;27.90
21832;DHT22;11078;49.872;6.188;2022-09-09T01:48:18;15.30;27.70
21832;DHT22;11078;49.872;6.188;2022-09-09T01:50:44;15.40;27.80
21832;DHT22;11078;49.872;6.188;2022-09-09T01:53:11;15.30;27.80
21832;DHT22;11078;49.872;6.188;2022-09-09T01:55:40;15.40;27.80
21832;DHT22;11078;49.872;6.188;2022-09-09T02:01:07;15.30;27.70
21832;DHT22;11078;49.872;6.188;2022-09-09T02:03:35;15.30;28.00
21832;DHT22;11078;49.872;6.188;2022-09-09T02:09:00;15.40;28.80
21832;DHT22;11078;49.872;6.188;2022-09-09T02:11:29;15.40;28.00
21832;DHT22;11078;49.872;6.188;2022-09-09T02:14:06;15.40;27.50
21832;DHT22;11078;49.872;6.188;2022-09-09T02:16:40;15.40;28.20
21832;DHT22;11078;49.872;6.188;2022-09-09T02:19:14;15.40;28.00
21832;DHT22;11078;49.872;6.188;2022-09-09T02:21:44;15.40;27.90
21832;DHT22;11078;49.872;6.188;2022-09-09T02:24:13;15.50;28.00
21832;DHT22;11078;49.872;6.188;2022-09-09T02:26:42;15.50;28.20
21832;DHT22;11078;49.872;6.188;2022-09-09T02:29:14;15.50;28.00
21832;DHT22;11078;49.872;6.188;2022-09-09T02:31:42;15.50;28.20
21832;DHT22;11078;49.872;6.188;2022-09-09T02:34:11;15.50;28.20
21832;DHT22;11078;49.872;6.188;2022-09-09T02:36:40;15.60;28.30
21832;DHT22;11078;49.872;6.188;2022-09-09T02:39:10;15.60;28.20
21832;DHT22;11078;49.872;6.188;2022-09-09T02:41:38;15.60;28.20
21832;DHT22;11078;49.872;6.188;2022-09-09T02:44:14;15.60;28.10
21832;DHT22;11078;49.872;6.188;2022-09-09T02:46:55;15.60;28.20
21832;DHT22;11078;49.872;6.188;2022-09-09T02:49:34;15.60;28.70
21832;DHT22;11078;49.872;6.188;2022-09-09T02:52:07;15.70;28.70
21832;DHT22;11078;49.872;6.188;2022-09-09T02:54:37;15.70;28.60
21832;DHT22;11078;49.872;6.188;2022-09-09T02:57:12;15.70;28.40
21832;DHT22;11078;49.872;6.188;2022-09-09T02:59:39;15.80;29.10
21832;DHT22;11078;49.872;6.188;2022-09-09T03:02:05;15.70;28.40
21832;DHT22;11078;49.872;6.188;2022-09-09T03:04:31;15.70;28.30
21832;DHT22;11078;49.872;6.188;2022-09-09T03:06:58;15.80;28.60
21832;DHT22;11078;49.872;6.188;2022-09-09T03:09:24;15.80;28.50
21832;DHT22;11078;49.872;6.188;2022-09-09T03:11:52;15.80;28.70
21832;DHT22;11078;49.872;6.188;2022-09-09T03:14:18;15.80;28.60
21832;DHT22;11078;49.872;6.188;2022-09-09T03:16:47;15.80;28.60
21832;DHT22;11078;49.872;6.188;2022-09-09T03:19:13;15.80;28.30
21832;DHT22;11078;49.872;6.188;2022-09-09T03:21:39;15.80;28.50
21832;DHT22;11078;49.872;6.188;2022-09-09T03:24:05;15.80;28.60
21832;DHT22;11078;49.872;6.188;2022-09-09T03:26:32;15.80;28.50
21832;DHT22;11078;49.872;6.188;2022-09-09T03:28:58;15.90;28.60
21832;DHT22;11078;49.872;6.188;2022-09-09T03:31:26;15.90;29.00
21832;DHT22;11078;49.872;6.188;2022-09-09T03:33:57;15.90;28.70
21832;DHT22;11078;49.872;6.188;2022-09-09T03:36:24;15.90;28.90
21832;DHT22;11078;49.872;6.188;2022-09-09T03:38:52;15.90;28.80
21832;DHT22;11078;49.872;6.188;2022-09-09T03:41:18;16.00;28.80
21832;DHT22;11078;49.872;6.188;2022-09-09T03:43:44;15.90;28.90
21832;DHT22;11078;49.872;6.188;2022-09-09T03:46:10;16.00;28.80
21832;DHT22;11078;49.872;6.188;2022-09-09T03:48:36;16.00;29.00
21832;DHT22;11078;49.872;6.188;2022-09-09T03:51:02;16.00;29.20
21832;DHT22;11078;49.872;6.188;2022-09-09T03:53:29;16.00;28.70
21832;DHT22;11078;49.872;6.188;2022-09-09T03:55:56;16.00;28.80
21832;DHT22;11078;49.872;6.188;2022-09-09T03:58:26;16.00;28.90
21832;DHT22;11078;49.872;6.188;2022-09-09T04:00:55;16.10;28.90
21832;DHT22;11078;49.872;6.188;2022-09-09T04:03:21;16.00;28.90
21832;DHT22;11078;49.872;6.188;2022-09-09T04:05:50;16.00;29.40
21832;DHT22;11078;49.872;6.188;2022-09-09T04:08:17;16.00;28.80
21832;DHT22;11078;49.872;6.188;2022-09-09T04:10:47;16.00;28.90
21832;DHT22;11078;49.872;6.188;2022-09-09T04:13:14;16.00;29.30
21832;DHT22;11078;49.872;6.188;2022-09-09T04:15:44;16.00;29.40
21832;DHT22;11078;49.872;6.188;2022-09-09T04:18:15;16.00;28.90
21832;DHT22;11078;49.872;6.188;2022-09-09T04:20:41;16.00;29.20
21832;DHT22;11078;49.872;6.188;2022-09-09T04:23:08;16.10;29.10
21832;DHT22;11078;49.872;6.188;2022-09-09T04:25:35;16.00;29.00
21832;DHT22;11078;49.872;6.188;2022-09-09T04:28:00;16.00;29.30
21832;DHT22;11078;49.872;6.188;2022-09-09T04:30:28;16.00;29.60
21832;DHT22;11078;49.872;6.188;2022-09-09T04:32:54;16.10;29.10
21832;DHT22;11078;49.872;6.188;2022-09-09T04:35:19;16.10;29.40
21832;DHT22;11078;49.872;6.188;2022-09-09T04:37:46;16.10;29.20
21832;DHT22;11078;49.872;6.188;2022-09-09T04:40:12;16.10;29.10
21832;DHT22;11078;49.872;6.188;2022-09-09T04:42:38;16.10;29.30
21832;DHT22;11078;49.872;6.188;2022-09-09T04:45:05;16.10;29.70
21832;DHT22;11078;49.872;6.188;2022-09-09T04:47:32;16.20;29.60
21832;DHT22;11078;49.872;6.188;2022-09-09T04:50:00;16.20;29.80
21832;DHT22;11078;49.872;6.188;2022-09-09T04:52:26;16.30;29.90
21832;DHT22;11078;49.872;6.188;2022-09-09T04:54:52;16.30;29.60
21832;DHT22;11078;49.872;6.188;2022-09-09T04:57:19;16.30;29.30
21832;DHT22;11078;49.872;6.188;2022-09-09T04:59:45;16.30;29.70
21832;DHT22;11078;49.872;6.188;2022-09-09T05:02:11;16.30;29.40
21832;DHT22;11078;49.872;6.188;2022-09-09T05:04:37;16.40;29.10
21832;DHT22;11078;49.872;6.188;2022-09-09T05:07:03;16.40;29.10
21832;DHT22;11078;49.872;6.188;2022-09-09T05:09:29;16.40;29.30
21832;DHT22;11078;49.872;6.188;2022-09-09T05:11:56;16.50;29.30
21832;DHT22;11078;49.872;6.188;2022-09-09T05:14:24;16.50;29.30
21832;DHT22;11078;49.872;6.188;2022-09-09T05:16:50;16.50;29.10
21832;DHT22;11078;49.872;6.188;2022-09-09T05:19:16;16.50;29.30
21832;DHT22;11078;49.872;6.188;2022-09-09T05:21:45;16.50;29.20
21832;DHT22;11078;49.872;6.188;2022-09-09T05:24:11;16.60;29.10
21832;DHT22;11078;49.872;6.188;2022-09-09T05:26:37;16.60;29.00
21832;DHT22;11078;49.872;6.188;2022-09-09T05:29:03;16.60;29.00
21832;DHT22;11078;49.872;6.188;2022-09-09T05:31:30;16.60;28.90
21832;DHT22;11078;49.872;6.188;2022-09-09T05:34:01;16.60;28.60
21832;DHT22;11078;49.872;6.188;2022-09-09T05:36:27;16.60;28.20
21832;DHT22;11078;49.872;6.188;2022-09-09T05:38:53;16.70;28.80
21832;DHT22;11078;49.872;6.188;2022-09-09T05:41:19;16.70;28.40
21832;DHT22;11078;49.872;6.188;2022-09-09T05:43:46;16.70;28.10
21832;DHT22;11078;49.872;6.188;2022-09-09T05:46:18;16.70;28.10
21832;DHT22;11078;49.872;6.188;2022-09-09T05:48:45;16.70;28.70
21832;DHT22;11078;49.872;6.188;2022-09-09T05:51:13;16.80;28.20
21832;DHT22;11078;49.872;6.188;2022-09-09T05:53:42;16.80;28.30
21832;DHT22;11078;49.872;6.188;2022-09-09T05:56:11;16.80;28.30
21832;DHT22;11078;49.872;6.188;2022-09-09T05:58:38;16.80;28.10
21832;DHT22;11078;49.872;6.188;2022-09-09T06:01:09;16.80;27.90
21832;DHT22;11078;49.872;6.188;2022-09-09T06:03:37;16.80;27.90
21832;DHT22;11078;49.872;6.188;2022-09-09T06:06:07;16.90;28.20
21832;DHT22;11078;49.872;6.188;2022-09-09T06:08:35;16.90;28.30
21832;DHT22;11078;49.872;6.188;2022-09-09T06:11:07;16.80;27.90
21832;DHT22;11078;49.872;6.188;2022-09-09T06:13:33;16.80;27.90
21832;DHT22;11078;49.872;6.188;2022-09-09T06:16:01;16.90;27.90
21832;DHT22;11078;49.872;6.188;2022-09-09T06:18:26;17.00;27.50
21832;DHT22;11078;49.872;6.188;2022-09-09T06:20:54;17.10;27.80
21832;DHT22;11078;49.872;6.188;2022-09-09T06:23:20;17.10;27.70
21832;DHT22;11078;49.872;6.188;2022-09-09T06:25:46;17.20;27.20
21832;DHT22;11078;49.872;6.188;2022-09-09T06:28:12;17.10;27.60
21832;DHT22;11078;49.872;6.188;2022-09-09T06:30:39;17.10;27.10
21832;DHT22;11078;49.872;6.188;2022-09-09T06:33:05;17.20;27.00
21832;DHT22;11078;49.872;6.188;2022-09-09T06:35:31;17.40;26.60
21832;DHT22;11078;49.872;6.188;2022-09-09T06:37:57;17.50;26.70
21832;DHT22;11078;49.872;6.188;2022-09-09T06:40:24;17.50;26.40
21832;DHT22;11078;49.872;6.188;2022-09-09T06:42:51;17.60;26.20
21832;DHT22;11078;49.872;6.188;2022-09-09T06:45:17;17.50;26.00
21832;DHT22;11078;49.872;6.188;2022-09-09T06:47:43;17.60;26.10
21832;DHT22;11078;49.872;6.188;2022-09-09T06:50:10;17.60;25.90
21832;DHT22;11078;49.872;6.188;2022-09-09T06:52:37;17.50;26.00
21832;DHT22;11078;49.872;6.188;2022-09-09T06:55:03;17.60;25.70
21832;DHT22;11078;49.872;6.188;2022-09-09T06:57:29;17.60;25.80
21832;DHT22;11078;49.872;6.188;2022-09-09T06:59:55;17.60;25.80
21832;DHT22;11078;49.872;6.188;2022-09-09T07:02:21;17.60;25.30
21832;DHT22;11078;49.872;6.188;2022-09-09T07:04:47;17.50;25.30
21832;DHT22;11078;49.872;6.188;2022-09-09T07:07:13;17.60;25.90
21832;DHT22;11078;49.872;6.188;2022-09-09T07:09:41;17.60;25.20
21832;DHT22;11078;49.872;6.188;2022-09-09T07:12:06;17.60;25.90
21832;DHT22;11078;49.872;6.188;2022-09-09T07:14:33;17.60;25.10
21832;DHT22;11078;49.872;6.188;2022-09-09T07:17:01;17.70;25.10
21832;DHT22;11078;49.872;6.188;2022-09-09T07:19:28;17.60;24.20
21832;DHT22;11078;49.872;6.188;2022-09-09T07:21:54;17.60;24.70
21832;DHT22;11078;49.872;6.188;2022-09-09T07:24:20;17.50;24.80
21832;DHT22;11078;49.872;6.188;2022-09-09T07:26:46;17.50;24.50
21832;DHT22;11078;49.872;6.188;2022-09-09T07:29:11;17.50;24.20
21832;DHT22;11078;49.872;6.188;2022-09-09T07:31:39;17.60;24.90
21832;DHT22;11078;49.872;6.188;2022-09-09T07:34:06;17.50;24.90
21832;DHT22;11078;49.872;6.188;2022-09-09T07:36:34;17.50;24.40
21832;DHT22;11078;49.872;6.188;2022-09-09T07:39:05;17.60;24.20
21832;DHT22;11078;49.872;6.188;2022-09-09T07:41:35;17.60;24.00
21832;DHT22;11078;49.872;6.188;2022-09-09T07:44:07;17.60;23.40
21832;DHT22;11078;49.872;6.188;2022-09-09T07:46:33;17.70;22.60
21832;DHT22;11078;49.872;6.188;2022-09-09T07:48:59;17.80;23.80
21832;DHT22;11078;49.872;6.188;2022-09-09T07:51:29;17.90;23.60
21832;DHT22;11078;49.872;6.188;2022-09-09T07:53:58;17.90;23.00
21832;DHT22;11078;49.872;6.188;2022-09-09T07:56:25;18.00;23.20
21832;DHT22;11078;49.872;6.188;2022-09-09T07:58:53;18.00;23.50
21832;DHT22;11078;49.872;6.188;2022-09-09T08:01:26;18.10;23.30
21832;DHT22;11078;49.872;6.188;2022-09-09T08:04:03;18.20;23.10
21832;DHT22;11078;49.872;6.188;2022-09-09T08:06:33;18.20;22.40
21832;DHT22;11078;49.872;6.188;2022-09-09T08:08:59;18.20;23.40
21832;DHT22;11078;49.872;6.188;2022-09-09T08:11:27;18.10;22.80
21832;DHT22;11078;49.872;6.188;2022-09-09T08:13:54;18.10;23.20
21832;DHT22;11078;49.872;6.188;2022-09-09T08:16:23;18.10;23.00
21832;DHT22;11078;49.872;6.188;2022-09-09T08:18:50;18.10;23.10
21832;DHT22;11078;49.872;6.188;2022-09-09T08:21:19;18.10;23.10
21832;DHT22;11078;49.872;6.188;2022-09-09T08:23:47;18.20;22.80
21832;DHT22;11078;49.872;6.188;2022-09-09T08:26:16;18.20;23.00
21832;DHT22;11078;49.872;6.188;2022-09-09T08:28:42;18.20;22.90
21832;DHT22;11078;49.872;6.188;2022-09-09T08:31:11;18.30;22.90
21832;DHT22;11078;49.872;6.188;2022-09-09T08:33:38;18.30;22.60
21832;DHT22;11078;49.872;6.188;2022-09-09T08:36:05;18.30;22.90
21832;DHT22;11078;49.872;6.188;2022-09-09T08:38:32;18.40;22.60
21832;DHT22;11078;49.872;6.188;2022-09-09T08:43:50;18.60;21.60
21832;DHT22;11078;49.872;6.188;2022-09-09T08:46:26;18.70;22.10
21832;DHT22;11078;49.872;6.188;2022-09-09T08:49:07;18.80;22.00
21832;DHT22;11078;49.872;6.188;2022-09-09T08:51:37;18.80;19.80
21832;DHT22;11078;49.872;6.188;2022-09-09T08:54:04;18.90;22.40
21832;DHT22;11078;49.872;6.188;2022-09-09T08:56:32;19.00;21.30
21832;DHT22;11078;49.872;6.188;2022-09-09T08:59:01;19.00;20.80
21832;DHT22;11078;49.872;6.188;2022-09-09T09:07:28;18.90;19.20
21832;DHT22;11078;49.872;6.188;2022-09-09T09:12:56;18.90;19.10
21832;DHT22;11078;49.872;6.188;2022-09-09T09:15:25;18.90;20.60
21832;DHT22;11078;49.872;6.188;2022-09-09T09:17:52;18.80;21.20
21832;DHT22;11078;49.872;6.188;2022-09-09T09:20:27;18.70;20.90
21832;DHT22;11078;49.872;6.188;2022-09-09T09:23:00;18.70;21.00
21832;DHT22;11078;49.872;6.188;2022-09-09T09:25:34;18.60;21.20
21832;DHT22;11078;49.872;6.188;2022-09-09T09:28:17;18.50;22.00
21832;DHT22;11078;49.872;6.188;2022-09-09T09:33:47;18.50;22.00
21832;DHT22;11078;49.872;6.188;2022-09-09T09:36:15;18.60;21.20
21832;DHT22;11078;49.872;6.188;2022-09-09T09:38:58;18.60;21.80
21832;DHT22;11078;49.872;6.188;2022-09-09T09:41:30;18.60;21.30
21832;DHT22;11078;49.872;6.188;2022-09-09T09:43:56;18.90;21.50
21832;DHT22;11078;49.872;6.188;2022-09-09T09:46:24;19.00;20.90
21832;DHT22;11078;49.872;6.188;2022-09-09T09:49:08;19.20;20.80
21832;DHT22;11078;49.872;6.188;2022-09-09T09:51:35;19.30;19.30
21832;DHT22;11078;49.872;6.188;2022-09-09T09:54:18;19.30;19.40
21832;DHT22;11078;49.872;6.188;2022-09-09T09:56:48;19.50;20.50
21832;DHT22;11078;49.872;6.188;2022-09-09T09:59:37;19.60;20.30
21832;DHT22;11078;49.872;6.188;2022-09-09T10:02:17;19.60;18.50
21832;DHT22;11078;49.872;6.188;2022-09-09T10:04:45;19.70;19.80
21832;DHT22;11078;49.872;6.188;2022-09-09T10:07:15;19.70;20.00
21832;DHT22;11078;49.872;6.188;2022-09-09T10:09:42;19.90;20.00
21832;DHT22;11078;49.872;6.188;2022-09-09T10:12:22;20.10;20.10
21832;DHT22;11078;49.872;6.188;2022-09-09T10:15:07;19.80;17.10
21832;DHT22;11078;49.872;6.188;2022-09-09T10:23:48;20.60;17.40
21832;DHT22;11078;49.872;6.188;2022-09-09T10:26:46;20.90;17.00
21832;DHT22;11078;49.872;6.188;2022-09-09T10:29:32;21.00;14.50
21832;DHT22;11078;49.872;6.188;2022-09-09T10:32:24;21.10;16.70
21832;DHT22;11078;49.872;6.188;2022-09-09T10:35:13;21.00;16.30
21832;DHT22;11078;49.872;6.188;2022-09-09T10:37:57;21.00;14.60
21832;DHT22;11078;49.872;6.188;2022-09-09T10:40:33;21.10;16.50
21832;DHT22;11078;49.872;6.188;2022-09-09T10:43:10;21.20;15.70
21832;DHT22;11078;49.872;6.188;2022-09-09T10:45:49;21.50;16.80
21832;DHT22;11078;49.872;6.188;2022-09-09T10:48:31;21.90;15.50
21832;DHT22;11078;49.872;6.188;2022-09-09T10:51:22;21.90;12.80
21832;DHT22;11078;49.872;6.188;2022-09-09T10:54:14;21.90;13.40
21832;DHT22;11078;49.872;6.188;2022-09-09T10:56:44;21.90;12.50
21832;DHT22;11078;49.872;6.188;2022-09-09T10:59:19;22.10;14.10
21832;DHT22;11078;49.872;6.188;2022-09-09T11:01:53;22.40;13.80
21832;DHT22;11078;49.872;6.188;2022-09-09T11:04:27;22.50;14.50
21832;DHT22;11078;49.872;6.188;2022-09-09T11:07:01;22.60;13.30
21832;DHT22;11078;49.872;6.188;2022-09-09T11:09:35;22.70;14.30
21832;DHT22;11078;49.872;6.188;2022-09-09T11:12:03;22.80;13.00
21832;DHT22;11078;49.872;6.188;2022-09-09T11:14:39;22.70;15.00
21832;DHT22;11078;49.872;6.188;2022-09-09T11:17:15;22.60;12.20
21832;DHT22;11078;49.872;6.188;2022-09-09T11:19:43;22.70;12.10
21832;DHT22;11078;49.872;6.188;2022-09-09T11:28:18;22.20;11.20
21832;DHT22;11078;49.872;6.188;2022-09-09T11:42:39;22.70;10.90
21832;DHT22;11078;49.872;6.188;2022-09-09T11:45:23;22.70;13.70
21832;DHT22;11078;49.872;6.188;2022-09-09T11:47:56;22.50;9.50
21832;DHT22;11078;49.872;6.188;2022-09-09T11:50:33;22.60;11.90
21832;DHT22;11078;49.872;6.188;2022-09-09T11:53:16;22.80;11.70
21832;DHT22;11078;49.872;6.188;2022-09-09T11:55:44;22.80;11.90
21832;DHT22;11078;49.872;6.188;2022-09-09T11:58:18;22.80;12.40
21832;DHT22;11078;49.872;6.188;2022-09-09T12:00:47;22.80;8.60
21832;DHT22;11078;49.872;6.188;2022-09-09T12:06:25;23.10;6.90
21832;DHT22;11078;49.872;6.188;2022-09-09T12:08:55;23.10;9.80
21832;DHT22;11078;49.872;6.188;2022-09-09T12:11:30;22.80;9.40
21832;DHT22;11078;49.872;6.188;2022-09-09T12:13:58;22.80;10.30
21832;DHT22;11078;49.872;6.188;2022-09-09T12:16:36;22.70;12.10
21832;DHT22;11078;49.872;6.188;2022-09-09T12:19:12;22.70;8.90
21832;DHT22;11078;49.872;6.188;2022-09-09T12:21:59;23.00;11.70
21832;DHT22;11078;49.872;6.188;2022-09-09T12:24:49;22.90;8.70
21832;DHT22;11078;49.872;6.188;2022-09-09T12:27:33;22.90;8.50
21832;DHT22;11078;49.872;6.188;2022-09-09T12:30:07;22.80;8.90
21832;DHT22;11078;49.872;6.188;2022-09-09T12:32:35;22.70;10.90
21832;DHT22;11078;49.872;6.188;2022-09-09T12:35:11;22.40;12.00
21832;DHT22;11078;49.872;6.188;2022-09-09T12:37:45;22.00;11.40
21832;DHT22;11078;49.872;6.188;2022-09-09T12:44:21;21.40;13.70
21832;DHT22;11078;49.872;6.188;2022-09-09T12:55:18;20.60;15.50
21832;DHT22;11078;49.872;6.188;2022-09-09T12:57:55;20.80;16.30
21832;DHT22;11078;49.872;6.188;2022-09-09T13:00:26;20.80;15.80
21832;DHT22;11078;49.872;6.188;2022-09-09T13:02:58;20.80;15.90
21832;DHT22;11078;49.872;6.188;2022-09-09T13:05:35;20.70;15.90
21832;DHT22;11078;49.872;6.188;2022-09-09T13:08:04;20.50;16.10
21832;DHT22;11078;49.872;6.188;2022-09-09T13:10:35;20.40;16.20
21832;DHT22;11078;49.872;6.188;2022-09-09T13:13:13;20.20;16.70
21832;DHT22;11078;49.872;6.188;2022-09-09T13:15:39;20.20;16.70
21832;DHT22;11078;49.872;6.188;2022-09-09T13:18:10;20.20;17.00
21832;DHT22;11078;49.872;6.188;2022-09-09T13:20:37;20.10;17.40
21832;DHT22;11078;49.872;6.188;2022-09-09T13:23:03;20.00;17.10
21832;DHT22;11078;49.872;6.188;2022-09-09T13:25:29;19.80;17.30
21832;DHT22;11078;49.872;6.188;2022-09-09T13:27:59;19.70;17.50
21832;DHT22;11078;49.872;6.188;2022-09-09T13:30:32;19.60;17.70
21832;DHT22;11078;49.872;6.188;2022-09-09T13:33:06;19.40;17.80
21832;DHT22;11078;49.872;6.188;2022-09-09T13:35:33;19.50;18.20
21832;DHT22;11078;49.872;6.188;2022-09-09T13:38:06;19.50;18.00
21832;DHT22;11078;49.872;6.188;2022-09-09T13:40:33;19.40;17.80
21832;DHT22;11078;49.872;6.188;2022-09-09T13:43:00;19.40;18.20
21832;DHT22;11078;49.872;6.188;2022-09-09T13:45:27;19.40;18.50
21832;DHT22;11078;49.872;6.188;2022-09-09T13:47:54;19.50;18.60
21832;DHT22;11078;49.872;6.188;2022-09-09T13:50:24;19.40;18.80
21832;DHT22;11078;49.872;6.188;2022-09-09T13:52:53;19.30;18.80
21832;DHT22;11078;49.872;6.188;2022-09-09T13:55:22;19.30;19.00
21832;DHT22;11078;49.872;6.188;2022-09-09T13:58:04;19.30;19.00
21832;DHT22;11078;49.872;6.188;2022-09-09T14:00:33;19.20;19.70
21832;DHT22;11078;49.872;6.188;2022-09-09T14:03:00;19.10;19.10
21832;DHT22;11078;49.872;6.188;2022-09-09T14:05:28;19.00;18.90
21832;DHT22;11078;49.872;6.188;2022-09-09T14:07:56;19.00;19.00
21832;DHT22;11078;49.872;6.188;2022-09-09T14:10:23;18.90;19.30
21832;DHT22;11078;49.872;6.188;2022-09-09T14:12:49;19.00;19.20
21832;DHT22;11078;49.872;6.188;2022-09-09T14:15:15;19.00;19.20
21832;DHT22;11078;49.872;6.188;2022-09-09T14:17:42;19.10;19.30
21832;DHT22;11078;49.872;6.188;2022-09-09T14:20:09;19.10;19.20
21832;DHT22;11078;49.872;6.188;2022-09-09T14:22:37;19.20;19.20
21832;DHT22;11078;49.872;6.188;2022-09-09T14:25:05;19.20;19.20
21832;DHT22;11078;49.872;6.188;2022-09-09T14:27:32;19.20;19.00
21832;DHT22;11078;49.872;6.188;2022-09-09T14:29:58;19.30;19.10
21832;DHT22;11078;49.872;6.188;2022-09-09T14:32:26;19.40;19.10
21832;DHT22;11078;49.872;6.188;2022-09-09T14:34:52;19.50;18.90
21832;DHT22;11078;49.872;6.188;2022-09-09T14:37:18;19.60;18.80
21832;DHT22;11078;49.872;6.188;2022-09-09T14:39:46;19.60;18.70
21832;DHT22;11078;49.872;6.188;2022-09-09T14:42:13;19.70;18.60
21832;DHT22;11078;49.872;6.188;2022-09-09T14:44:40;19.80;18.70
21832;DHT22;11078;49.872;6.188;2022-09-09T14:47:07;19.80;18.50
21832;DHT22;11078;49.872;6.188;2022-09-09T14:49:35;19.90;18.50
21832;DHT22;11078;49.872;6.188;2022-09-09T14:52:01;19.90;18.30
21832;DHT22;11078;49.872;6.188;2022-09-09T14:54:28;19.90;18.20
21832;DHT22;11078;49.872;6.188;2022-09-09T14:56:54;20.10;18.20
21832;DHT22;11078;49.872;6.188;2022-09-09T14:59:20;20.10;18.40
21832;DHT22;11078;49.872;6.188;2022-09-09T15:01:48;20.20;18.10
21832;DHT22;11078;49.872;6.188;2022-09-09T15:04:14;20.30;17.70
21832;DHT22;11078;49.872;6.188;2022-09-09T15:06:40;20.20;17.50
21832;DHT22;11078;49.872;6.188;2022-09-09T15:09:10;20.10;18.00
21832;DHT22;11078;49.872;6.188;2022-09-09T15:11:37;20.00;17.90
21832;DHT22;11078;49.872;6.188;2022-09-09T15:14:05;19.90;18.30
21832;DHT22;11078;49.872;6.188;2022-09-09T15:16:32;19.80;18.50
21832;DHT22;11078;49.872;6.188;2022-09-09T15:18:59;19.80;18.00
21832;DHT22;11078;49.872;6.188;2022-09-09T15:21:30;19.70;18.60
21832;DHT22;11078;49.872;6.188;2022-09-09T15:23:57;19.60;17.90
21832;DHT22;11078;49.872;6.188;2022-09-09T15:26:23;19.60;18.80
21832;DHT22;11078;49.872;6.188;2022-09-09T15:28:50;19.50;18.50
21832;DHT22;11078;49.872;6.188;2022-09-09T15:31:20;19.60;18.40
21832;DHT22;11078;49.872;6.188;2022-09-09T15:33:48;19.40;19.10
21832;DHT22;11078;49.872;6.188;2022-09-09T15:36:23;19.30;18.90
21832;DHT22;11078;49.872;6.188;2022-09-09T15:38:50;19.20;19.90
21832;DHT22;11078;49.872;6.188;2022-09-09T15:41:17;19.20;19.80
21832;DHT22;11078;49.872;6.188;2022-09-09T15:43:45;19.20;20.00
21832;DHT22;11078;49.872;6.188;2022-09-09T15:46:26;19.20;20.10
21832;DHT22;11078;49.872;6.188;2022-09-09T15:48:54;19.30;21.40
21832;DHT22;11078;49.872;6.188;2022-09-09T15:51:21;19.30;20.50
21832;DHT22;11078;49.872;6.188;2022-09-09T15:53:48;19.30;20.40
21832;DHT22;11078;49.872;6.188;2022-09-09T15:56:14;19.30;20.30
21832;DHT22;11078;49.872;6.188;2022-09-09T15:58:40;19.40;20.20
21832;DHT22;11078;49.872;6.188;2022-09-09T16:01:09;19.40;20.10
21832;DHT22;11078;49.872;6.188;2022-09-09T16:03:38;19.40;20.40
21832;DHT22;11078;49.872;6.188;2022-09-09T16:06:05;19.40;20.40
21832;DHT22;11078;49.872;6.188;2022-09-09T16:08:32;19.40;20.80
21832;DHT22;11078;49.872;6.188;2022-09-09T16:11:13;19.40;20.50
21832;DHT22;11078;49.872;6.188;2022-09-09T16:13:42;19.50;20.40
21832;DHT22;11078;49.872;6.188;2022-09-09T16:16:11;19.60;20.30
21832;DHT22;11078;49.872;6.188;2022-09-09T16:18:40;19.60;20.30
21832;DHT22;11078;49.872;6.188;2022-09-09T16:21:07;19.60;20.50
21832;DHT22;11078;49.872;6.188;2022-09-09T16:23:35;19.80;20.70
21832;DHT22;11078;49.872;6.188;2022-09-09T16:26:01;19.80;20.40
21832;DHT22;11078;49.872;6.188;2022-09-09T16:28:30;19.80;20.20
21832;DHT22;11078;49.872;6.188;2022-09-09T16:30:57;19.70;20.00
21832;DHT22;11078;49.872;6.188;2022-09-09T16:33:24;19.70;20.10
21832;DHT22;11078;49.872;6.188;2022-09-09T16:35:51;19.60;20.20
21832;DHT22;11078;49.872;6.188;2022-09-09T16:38:17;19.50;19.80
21832;DHT22;11078;49.872;6.188;2022-09-09T16:40:43;19.50;20.30
21832;DHT22;11078;49.872;6.188;2022-09-09T16:43:10;19.40;20.30
21832;DHT22;11078;49.872;6.188;2022-09-09T16:45:45;19.40;20.00
21832;DHT22;11078;49.872;6.188;2022-09-09T16:48:12;19.40;20.00
21832;DHT22;11078;49.872;6.188;2022-09-09T16:50:38;19.40;19.80
21832;DHT22;11078;49.872;6.188;2022-09-09T16:53:05;19.40;19.80
21832;DHT22;11078;49.872;6.188;2022-09-09T16:55:38;19.40;19.90
21832;DHT22;11078;49.872;6.188;2022-09-09T16:58:05;19.30;20.60
21832;DHT22;11078;49.872;6.188;2022-09-09T17:00:31;19.20;20.60
21832;DHT22;11078;49.872;6.188;2022-09-09T17:02:57;19.20;20.00
21832;DHT22;11078;49.872;6.188;2022-09-09T17:05:24;19.20;20.20
21832;DHT22;11078;49.872;6.188;2022-09-09T17:07:51;19.20;20.40
21832;DHT22;11078;49.872;6.188;2022-09-09T17:10:17;19.20;20.50
21832;DHT22;11078;49.872;6.188;2022-09-09T17:12:44;19.10;20.20